createdAt,value
2018-03-23T00:00:36.733Z,89.80
2018-03-23T00:03:04.966Z,89.90
2018-03-23T00:05:32.696Z,89.90
2018-03-23T00:08:00.158Z,90.00
2018-03-23T00:10:27.632Z,89.90
2018-03-23T00:12:55.098Z,90.00
2018-03-23T00:15:22.565Z,89.90
2018-03-23T00:17:50.062Z,89.50
2018-03-23T00:20:18.666Z,90.30
2018-03-23T00:22:46.143Z,90.20
2018-03-23T00:25:13.607Z,90.50
2018-03-23T00:27:41.069Z,90.40
2018-03-23T00:30:08.530Z,90.60
2018-03-23T00:32:35.990Z,90.70
2018-03-23T00:35:03.474Z,90.90
2018-03-23T00:37:30.941Z,90.70
2018-03-23T00:39:58.629Z,90.90
2018-03-23T00:42:26.093Z,90.90
2018-03-23T00:44:53.560Z,90.90
2018-03-23T00:47:21.030Z,90.90
2018-03-23T00:49:48.484Z,90.90
2018-03-23T00:52:15.961Z,91.00
2018-03-23T00:54:43.679Z,90.90
2018-03-23T00:57:11.144Z,90.80
2018-03-23T00:59:38.620Z,90.90
2018-03-23T01:02:06.115Z,91.20
2018-03-23T01:04:34.631Z,91.40
2018-03-23T01:07:02.092Z,91.40
2018-03-23T01:09:29.556Z,91.50
2018-03-23T01:11:57.032Z,91.60
2018-03-23T01:14:24.490Z,91.30
2018-03-23T01:16:51.962Z,91.50
2018-03-23T01:19:19.432Z,91.40
2018-03-23T01:21:46.909Z,91.50
2018-03-23T01:24:15.142Z,91.60
2018-03-23T01:26:43.362Z,91.80
2018-03-23T01:29:11.599Z,91.70
2018-03-23T01:31:39.323Z,91.70
2018-03-23T01:34:06.791Z,91.70
2018-03-23T01:36:34.306Z,91.70
2018-03-23T01:39:01.719Z,91.70
2018-03-23T01:41:29.458Z,91.70
2018-03-23T01:43:56.918Z,92.00
2018-03-23T01:46:24.678Z,91.90
2018-03-23T01:48:52.138Z,91.90
2018-03-23T01:51:19.614Z,91.80
2018-03-23T01:53:47.066Z,92.00
2018-03-23T01:56:14.751Z,92.20
2018-03-23T01:58:42.210Z,92.20
2018-03-23T02:01:09.678Z,92.40
2018-03-23T02:03:37.146Z,92.50
2018-03-23T02:06:05.369Z,92.50
2018-03-23T02:08:32.839Z,92.50
2018-03-23T02:11:00.577Z,92.40
2018-03-23T02:13:28.045Z,92.40
2018-03-23T02:15:55.506Z,92.20
2018-03-23T02:18:22.963Z,92.00
2018-03-23T02:20:50.718Z,92.00
2018-03-23T02:23:18.174Z,92.20
2018-03-23T02:25:45.642Z,92.30
2018-03-23T02:28:13.097Z,92.40
2018-03-23T02:30:40.559Z,92.20
2018-03-23T02:33:08.042Z,92.30
2018-03-23T02:35:35.499Z,92.30
2018-03-23T02:38:02.978Z,92.30
2018-03-23T02:40:31.202Z,92.20
2018-03-23T02:42:58.953Z,91.90
2018-03-23T02:45:26.724Z,92.00
2018-03-23T02:47:54.186Z,92.10
2018-03-23T02:50:21.658Z,92.10
2018-03-23T02:52:49.121Z,92.10
2018-03-23T02:55:16.593Z,92.20
2018-03-23T02:57:44.315Z,92.70
2018-03-23T03:00:11.786Z,92.30
2018-03-23T03:02:39.254Z,92.10
2018-03-23T03:05:06.722Z,92.20
2018-03-23T03:07:34.187Z,92.30
2018-03-23T03:10:01.656Z,92.00
2018-03-23T03:12:29.122Z,91.80
2018-03-23T03:14:57.639Z,91.80
2018-03-23T03:17:25.105Z,91.80
2018-03-23T03:19:52.883Z,91.90
2018-03-23T03:22:20.325Z,91.80
2018-03-23T03:24:48.081Z,91.60
2018-03-23T03:27:15.537Z,91.70
2018-03-23T03:29:42.995Z,91.70
2018-03-23T03:32:10.758Z,91.80
2018-03-23T03:34:38.214Z,91.70
2018-03-23T03:37:05.982Z,91.80
2018-03-23T03:39:33.438Z,91.80
2018-03-23T03:42:00.901Z,92.00
2018-03-23T03:44:28.369Z,92.10
2018-03-23T03:46:55.825Z,92.10
2018-03-23T03:49:23.296Z,92.20
2018-03-23T03:51:50.750Z,92.10
2018-03-23T03:54:18.218Z,91.90
2018-03-23T03:56:45.679Z,91.90
2018-03-23T03:59:13.136Z,92.10
2018-03-23T04:01:40.642Z,92.30
2018-03-23T04:04:08.104Z,92.30
2018-03-23T04:06:35.574Z,92.20
2018-03-23T04:09:03.037Z,92.50
2018-03-23T04:11:30.789Z,92.30
2018-03-23T04:13:58.261Z,92.20
2018-03-23T04:16:25.714Z,92.10
2018-03-23T04:18:53.178Z,92.10
2018-03-23T04:21:20.851Z,92.10
2018-03-23T04:23:49.081Z,92.10
2018-03-23T04:26:16.749Z,92.10
2018-03-23T04:28:44.202Z,92.10
2018-03-23T04:31:11.662Z,92.10
2018-03-23T04:33:39.438Z,92.10
2018-03-23T04:36:06.905Z,92.20
2018-03-23T04:38:34.370Z,92.00
2018-03-23T04:41:01.821Z,91.90
2018-03-23T04:43:29.327Z,92.00
2018-03-23T04:45:56.782Z,92.00
2018-03-23T04:48:24.288Z,92.10
2018-03-23T04:50:51.764Z,91.90
2018-03-23T04:53:19.226Z,92.40
2018-03-23T04:55:46.962Z,92.50
2018-03-23T04:58:14.726Z,92.30
2018-03-23T05:00:42.406Z,92.30
2018-03-23T05:03:09.875Z,92.40
2018-03-23T05:05:37.347Z,92.40
2018-03-23T05:08:04.820Z,92.40
2018-03-23T05:10:32.286Z,92.50
2018-03-23T05:12:59.755Z,92.60
2018-03-23T05:15:27.210Z,92.60
2018-03-23T05:17:55.818Z,92.50
2018-03-23T05:20:23.270Z,92.60
2018-03-23T05:22:50.817Z,92.30
2018-03-23T05:25:18.282Z,92.30
2018-03-23T05:27:45.743Z,92.60
2018-03-23T05:30:13.525Z,92.70
2018-03-23T05:32:40.981Z,92.40
2018-03-23T05:35:08.734Z,92.70
2018-03-23T05:37:36.194Z,92.70
2018-03-23T05:40:03.954Z,92.60
2018-03-23T05:42:31.717Z,92.60
2018-03-23T05:44:59.171Z,92.80
2018-03-23T05:47:26.630Z,92.80
2018-03-23T05:49:54.398Z,92.70
2018-03-23T05:52:21.856Z,92.80
2018-03-23T05:54:49.315Z,92.60
2018-03-23T05:57:16.778Z,92.90
2018-03-23T05:59:45.030Z,92.70
2018-03-23T06:02:12.494Z,92.60
2018-03-23T06:04:39.953Z,92.80
2018-03-23T06:07:07.422Z,92.70
2018-03-23T06:09:34.878Z,93.00
2018-03-23T06:12:02.354Z,92.90
2018-03-23T06:14:29.815Z,92.70
2018-03-23T06:16:57.279Z,92.60
2018-03-23T06:19:24.746Z,92.80
2018-03-23T06:21:52.208Z,92.70
2018-03-23T06:24:19.683Z,92.60
2018-03-23T06:26:47.910Z,92.30
2018-03-23T06:29:15.658Z,92.20
2018-03-23T06:31:43.422Z,92.40
2018-03-23T06:34:10.873Z,92.10
2018-03-23T06:36:38.346Z,92.10
2018-03-23T06:39:05.819Z,91.90
2018-03-23T06:41:33.270Z,91.80
2018-03-23T06:44:01.015Z,91.80
2018-03-23T06:46:28.466Z,91.60
2018-03-23T06:48:55.930Z,91.70
2018-03-23T06:51:23.391Z,91.50
2018-03-23T06:53:50.863Z,91.30
2018-03-23T06:56:18.325Z,91.30
2018-03-23T06:58:46.166Z,91.10
2018-03-23T07:01:13.929Z,91.30
2018-03-23T07:03:41.693Z,91.20
2018-03-23T07:06:09.457Z,91.30
2018-03-23T07:08:36.918Z,91.50
2018-03-23T07:11:04.389Z,91.50
2018-03-23T07:13:31.846Z,91.40
2018-03-23T07:15:59.315Z,91.80
2018-03-23T07:18:26.783Z,91.30
2018-03-23T07:20:54.234Z,91.30
2018-03-23T07:23:21.705Z,91.30
2018-03-23T07:25:49.171Z,91.40
2018-03-23T07:28:16.877Z,91.30
2018-03-23T07:30:44.343Z,91.50
2018-03-23T07:33:11.800Z,91.10
2018-03-23T07:35:39.557Z,91.30
2018-03-23T07:38:07.021Z,91.20
2018-03-23T07:40:34.494Z,90.90
2018-03-23T07:43:01.955Z,91.00
2018-03-23T07:45:29.435Z,91.40
2018-03-23T07:47:56.889Z,91.50
2018-03-23T07:50:24.359Z,91.70
2018-03-23T07:52:52.066Z,92.10
2018-03-23T07:55:19.541Z,91.40
2018-03-23T07:57:47.009Z,91.50
2018-03-23T08:00:14.474Z,91.40
2018-03-23T08:02:41.942Z,91.40
2018-03-23T08:05:10.185Z,91.80
2018-03-23T08:07:37.865Z,91.70
2018-03-23T08:10:05.330Z,91.80
2018-03-23T08:12:32.791Z,91.50
2018-03-23T08:15:00.257Z,91.50
2018-03-23T08:17:27.714Z,91.70
2018-03-23T08:19:55.174Z,91.90
2018-03-23T08:22:22.651Z,91.80
2018-03-23T08:24:50.110Z,91.80
2018-03-23T08:27:18.342Z,91.70
2018-03-23T08:29:45.798Z,91.70
2018-03-23T08:32:13.531Z,91.60
2018-03-23T08:34:41.404Z,91.60
2018-03-23T08:37:08.875Z,91.30
2018-03-23T08:39:36.338Z,91.30
2018-03-23T08:42:03.799Z,91.60
2018-03-23T08:44:31.288Z,91.50
2018-03-23T08:46:59.522Z,91.50
2018-03-23T08:49:26.981Z,91.40
2018-03-23T08:51:54.462Z,91.60
2018-03-23T08:54:21.918Z,91.00
2018-03-23T08:56:49.393Z,91.00
2018-03-23T08:59:17.618Z,90.70
2018-03-23T09:01:45.370Z,90.70
2018-03-23T09:04:12.820Z,90.70
2018-03-23T09:06:40.282Z,90.80
2018-03-23T09:09:07.734Z,90.80
2018-03-23T09:11:35.226Z,90.90
2018-03-23T09:14:02.681Z,90.70
2018-03-23T09:16:30.142Z,90.50
2018-03-23T09:18:57.874Z,90.20
2018-03-23T09:21:25.338Z,89.60
2018-03-23T09:23:52.806Z,89.90
2018-03-23T09:26:20.269Z,89.70
2018-03-23T09:28:47.739Z,89.10
2018-03-23T09:31:15.225Z,89.40
2018-03-23T09:33:42.701Z,90.20
2018-03-23T09:36:10.161Z,90.10
2018-03-23T09:38:37.622Z,90.20
2018-03-23T09:41:05.085Z,88.90
2018-03-23T09:43:32.554Z,89.00
2018-03-23T09:46:00.010Z,88.30
2018-03-23T09:48:27.477Z,88.50
2018-03-23T09:50:54.937Z,88.30
2018-03-23T09:53:22.864Z,88.30
2018-03-23T09:55:50.408Z,88.50
2018-03-23T09:58:22.917Z,87.50
2018-03-23T10:00:50.386Z,88.50
2018-03-23T10:03:18.038Z,87.30
2018-03-23T10:05:45.732Z,86.70
2018-03-23T10:08:13.465Z,87.10
2018-03-23T10:10:40.930Z,87.00
2018-03-23T10:13:08.430Z,87.30
2018-03-23T10:15:35.905Z,86.00
2018-03-23T10:18:04.127Z,85.80
2018-03-23T10:20:31.598Z,85.70
2018-03-23T10:22:59.098Z,86.70
2018-03-23T10:25:27.323Z,85.50
2018-03-23T10:27:55.820Z,85.40
2018-03-23T10:30:23.275Z,85.90
2018-03-23T10:32:51.006Z,87.00
2018-03-23T10:35:18.476Z,86.30
2018-03-23T10:37:45.972Z,86.00
2018-03-23T10:40:13.439Z,86.00
2018-03-23T10:42:41.016Z,84.40
2018-03-23T10:45:08.510Z,85.60
2018-03-23T10:47:35.978Z,86.00
2018-03-23T10:50:03.438Z,84.80
2018-03-23T10:52:31.386Z,84.30
2018-03-23T10:54:59.030Z,84.90
2018-03-23T10:57:26.539Z,85.20
2018-03-23T10:59:54.001Z,84.30
2018-03-23T11:05:23.801Z,84.80
2018-03-23T11:07:51.280Z,85.30
2018-03-23T11:10:18.737Z,84.20
2018-03-23T11:12:46.220Z,85.50
2018-03-23T11:15:13.690Z,85.60
2018-03-23T11:17:41.929Z,84.50
2018-03-23T11:20:09.398Z,84.40
2018-03-23T11:22:36.860Z,85.60
2018-03-23T11:25:04.329Z,84.80
2018-03-23T11:27:32.850Z,83.80
2018-03-23T11:30:00.330Z,83.80
2018-03-23T11:32:27.786Z,84.80
2018-03-23T11:34:55.251Z,84.30
2018-03-23T11:37:24.667Z,83.30
2018-03-23T11:39:52.158Z,84.20
2018-03-23T11:42:21.541Z,85.30
2018-03-23T11:44:49.479Z,85.30
2018-03-23T11:47:16.920Z,84.80
2018-03-23T11:49:44.387Z,83.70
2018-03-23T11:52:11.848Z,84.90
2018-03-23T11:54:39.313Z,84.40
2018-03-23T11:57:07.543Z,83.70
2018-03-23T11:59:35.022Z,83.60
2018-03-23T12:02:02.749Z,83.10
2018-03-23T12:04:30.469Z,83.80
2018-03-23T12:06:58.744Z,83.80
2018-03-23T12:09:26.725Z,83.80
2018-03-23T12:11:54.997Z,84.10
2018-03-23T12:14:22.487Z,84.10
2018-03-23T12:16:49.941Z,83.90
2018-03-23T12:19:18.174Z,83.00
2018-03-23T12:21:45.635Z,83.00
2018-03-23T12:24:13.123Z,84.20
2018-03-23T12:26:41.361Z,84.60
2018-03-23T12:29:09.205Z,84.50
2018-03-23T12:31:36.689Z,85.50
2018-03-23T12:34:06.049Z,85.20
2018-03-23T12:36:33.515Z,85.10
2018-03-23T12:39:00.986Z,84.50
2018-03-23T12:41:28.445Z,84.60
2018-03-23T12:43:55.917Z,84.10
2018-03-23T12:46:23.410Z,84.60
2018-03-23T12:48:50.871Z,84.60
2018-03-23T12:51:19.394Z,83.90
2018-03-23T12:53:46.867Z,83.90
2018-03-23T12:56:14.364Z,83.90
2018-03-23T12:58:41.809Z,83.10
2018-03-23T13:01:09.255Z,83.50
2018-03-23T13:03:36.727Z,83.50
2018-03-23T13:06:04.207Z,83.00
2018-03-23T13:08:31.666Z,83.70
2018-03-23T13:10:59.901Z,81.80
2018-03-23T13:13:27.365Z,81.70
2018-03-23T13:15:55.190Z,80.20
2018-03-23T13:18:22.655Z,78.70
2018-03-23T13:20:50.414Z,79.60
2018-03-23T13:23:17.874Z,78.90
2018-03-23T13:25:45.348Z,79.80
2018-03-23T13:28:12.814Z,78.40
2018-03-23T13:30:41.048Z,78.40
2018-03-23T13:33:08.528Z,78.50
2018-03-23T13:35:36.286Z,79.30
2018-03-23T13:38:03.756Z,78.60
2018-03-23T13:40:31.211Z,78.20
2018-03-23T13:42:58.683Z,78.00
2018-03-23T13:45:26.164Z,77.10
2018-03-23T13:47:53.841Z,76.10
2018-03-23T13:50:22.124Z,76.40
2018-03-23T13:52:49.542Z,76.30
2018-03-23T13:55:17.002Z,77.80
2018-03-23T13:57:44.475Z,75.70
2018-03-23T14:00:17.598Z,75.80
2018-03-23T14:02:45.068Z,75.10
2018-03-23T14:05:12.530Z,75.70
2018-03-23T14:07:39.991Z,75.30
2018-03-23T14:10:07.751Z,73.40
2018-03-23T14:12:35.724Z,73.20
2018-03-23T14:15:03.225Z,74.10
2018-03-23T14:17:30.679Z,73.40
2018-03-23T14:19:58.145Z,71.90
2018-03-23T14:22:25.856Z,73.10
2018-03-23T14:24:53.338Z,74.40
2018-03-23T14:27:20.791Z,74.80
2018-03-23T14:29:48.290Z,74.10
2018-03-23T14:32:16.805Z,72.00
2018-03-23T14:34:44.276Z,71.70
2018-03-23T14:37:12.026Z,72.70
2018-03-23T14:39:39.507Z,73.50
2018-03-23T14:42:06.978Z,71.20
2018-03-23T14:44:34.442Z,73.20
2018-03-23T14:47:01.917Z,71.10
2018-03-23T14:49:30.163Z,71.40
2018-03-23T14:51:57.640Z,71.40
2018-03-23T14:54:25.109Z,70.70
2018-03-23T14:56:53.347Z,70.30
2018-03-23T14:59:20.812Z,70.20
2018-03-23T15:01:48.280Z,69.90
2018-03-23T15:04:15.755Z,68.50
2018-03-23T15:06:44.005Z,69.90
2018-03-23T15:09:11.509Z,69.90
2018-03-23T15:11:38.996Z,71.00
2018-03-23T15:14:15.558Z,69.30
2018-03-23T15:16:43.026Z,71.70
2018-03-23T15:19:10.478Z,72.00
2018-03-23T15:21:37.950Z,70.20
2018-03-23T15:24:05.692Z,70.00
2018-03-23T15:26:33.160Z,70.30
2018-03-23T15:29:00.630Z,68.00
2018-03-23T15:31:28.084Z,68.70
2018-03-23T15:33:55.777Z,68.20
2018-03-23T15:36:23.242Z,67.30
2018-03-23T15:38:51.632Z,69.00
2018-03-23T15:41:19.950Z,68.30
2018-03-23T15:43:47.419Z,68.30
2018-03-23T15:46:14.869Z,68.70
2018-03-23T15:48:42.337Z,68.90
2018-03-23T15:51:09.824Z,68.20
2018-03-23T15:53:38.077Z,66.50
2018-03-23T15:56:05.753Z,66.50
2018-03-23T15:58:33.222Z,68.10
2018-03-23T16:01:01.463Z,69.10
2018-03-23T16:03:28.918Z,68.20
2018-03-23T16:05:56.418Z,67.10
2018-03-23T16:08:24.727Z,67.10
2018-03-23T16:10:52.503Z,67.10
2018-03-23T16:13:20.321Z,67.60
2018-03-23T16:15:47.747Z,68.30
2018-03-23T16:18:15.241Z,69.60
2018-03-23T16:20:43.465Z,68.80
2018-03-23T16:23:10.950Z,68.80
2018-03-23T16:25:38.576Z,70.60
2018-03-23T16:28:06.898Z,75.70
2018-03-23T16:30:35.151Z,76.20
2018-03-23T16:33:02.656Z,76.10
2018-03-23T16:35:30.127Z,76.70
2018-03-23T16:37:57.587Z,76.80
2018-03-23T16:40:25.062Z,76.90
2018-03-23T16:42:52.617Z,76.90
2018-03-23T16:45:20.605Z,76.90
2018-03-23T16:47:48.078Z,77.80
2018-03-23T16:50:17.057Z,77.50
2018-03-23T16:52:44.525Z,77.40
2018-03-23T16:55:12.004Z,78.00
2018-03-23T16:57:40.421Z,78.20
2018-03-23T17:00:07.897Z,78.40
2018-03-23T17:02:35.646Z,78.90
2018-03-23T17:05:03.119Z,78.60
2018-03-23T17:07:30.582Z,78.70
2018-03-23T17:09:58.328Z,79.50
2018-03-23T17:12:25.936Z,79.20
2018-03-23T17:14:54.178Z,79.40
2018-03-23T17:17:21.642Z,79.30
2018-03-23T17:19:49.120Z,78.70
2018-03-23T17:22:16.587Z,79.20
2018-03-23T17:24:44.063Z,79.60
2018-03-23T17:27:12.282Z,79.70
2018-03-23T17:29:40.518Z,80.10
2018-03-23T17:32:08.011Z,80.10
2018-03-23T17:34:35.784Z,80.10
2018-03-23T17:37:03.390Z,80.20
2018-03-23T17:39:31.631Z,80.90
2018-03-23T17:41:59.099Z,80.90
2018-03-23T17:44:26.572Z,81.40
2018-03-23T17:46:54.030Z,81.20
2018-03-23T17:49:21.496Z,80.10
2018-03-23T17:51:49.943Z,81.60
2018-03-23T17:54:17.407Z,80.70
2018-03-23T17:56:44.865Z,80.70
2018-03-23T17:59:12.335Z,80.50
2018-03-23T18:01:40.042Z,80.70
2018-03-23T18:04:07.730Z,80.70
2018-03-23T18:06:35.186Z,81.20
2018-03-23T18:09:02.646Z,81.70
2018-03-23T18:11:30.115Z,80.90
2018-03-23T18:13:57.590Z,80.80
2018-03-23T18:16:25.051Z,80.80
2018-03-23T18:18:52.534Z,81.90
2018-03-23T18:21:19.993Z,81.20
2018-03-23T18:23:47.470Z,81.50
2018-03-23T18:26:14.926Z,81.60
2018-03-23T18:28:42.417Z,81.60
2018-03-23T18:31:09.887Z,81.90
2018-03-23T18:33:37.371Z,81.60
2018-03-23T18:36:05.606Z,81.60
2018-03-23T18:38:33.114Z,81.60
2018-03-23T18:41:00.598Z,81.90
2018-03-23T18:43:28.328Z,81.10
2018-03-23T18:45:55.798Z,81.40
2018-03-23T18:48:23.258Z,81.60
2018-03-23T18:50:50.711Z,81.30
2018-03-23T18:53:18.183Z,81.80
2018-03-23T18:55:45.867Z,81.90
2018-03-23T18:58:13.616Z,82.30
2018-03-23T19:00:41.096Z,82.00
2018-03-23T19:03:08.665Z,81.70
2018-03-23T19:05:36.129Z,81.90
2018-03-23T19:08:03.594Z,81.60
2018-03-23T19:10:32.130Z,81.70
2018-03-23T19:12:59.897Z,81.60
2018-03-23T19:15:27.685Z,82.00
2018-03-23T19:17:55.846Z,82.30
2018-03-23T19:20:23.343Z,82.30
2018-03-23T19:22:51.787Z,83.50
2018-03-23T19:25:19.292Z,82.70
2018-03-23T19:27:47.550Z,83.00
2018-03-23T19:30:15.384Z,83.00
2018-03-23T19:32:43.339Z,82.50
2018-03-23T19:35:11.094Z,82.50
2018-03-23T19:37:38.825Z,82.40
2018-03-23T19:40:07.074Z,81.80
2018-03-23T19:42:34.538Z,81.70
2018-03-23T19:45:02.250Z,81.30
2018-03-23T19:47:29.742Z,81.40
2018-03-23T19:49:57.209Z,81.70
2018-03-23T19:52:24.682Z,81.70
2018-03-23T19:54:53.205Z,83.30
2018-03-23T19:57:20.740Z,82.50
2018-03-23T19:59:48.429Z,82.20
2018-03-23T20:02:16.195Z,81.70
2018-03-23T20:04:43.667Z,82.10
2018-03-23T20:07:11.147Z,82.20
2018-03-23T20:09:38.680Z,81.90
2018-03-23T20:12:06.427Z,82.10
2018-03-23T20:14:33.887Z,82.50
2018-03-23T20:17:01.358Z,82.50
2018-03-23T20:19:28.828Z,82.90
2018-03-23T20:21:56.294Z,83.20
2018-03-23T20:24:29.963Z,83.70
2018-03-23T20:27:01.090Z,84.20
2018-03-23T20:29:28.868Z,84.40
2018-03-23T20:32:02.163Z,84.50
2018-03-23T20:34:29.931Z,84.40
2018-03-23T20:36:57.416Z,84.30
2018-03-23T20:39:24.903Z,84.50
2018-03-23T20:41:52.342Z,84.50
2018-03-23T20:44:19.813Z,84.60
2018-03-23T20:46:47.275Z,84.80
2018-03-23T20:49:15.032Z,85.00
2018-03-23T20:51:42.802Z,85.10
2018-03-23T20:54:11.036Z,84.90
2018-03-23T20:56:39.534Z,84.10
2018-03-23T20:59:07.009Z,84.40
2018-03-23T21:01:34.475Z,84.80
2018-03-23T21:04:02.710Z,85.00
2018-03-23T21:06:30.202Z,85.60
2018-03-23T21:08:57.661Z,84.50
2018-03-23T21:11:25.130Z,84.40
2018-03-23T21:13:53.352Z,84.30
2018-03-23T21:16:20.835Z,84.20
2018-03-23T21:18:48.290Z,84.20
2018-03-23T21:21:15.767Z,84.00
2018-03-23T21:23:43.246Z,84.20
2018-03-23T21:26:10.736Z,84.10
2018-03-23T21:28:38.195Z,84.20
2018-03-23T21:31:05.885Z,83.70
2018-03-23T21:33:33.347Z,84.00
2018-03-23T21:36:01.045Z,83.70
2018-03-23T21:38:28.527Z,83.70
2018-03-23T21:40:56.007Z,83.70
2018-03-23T21:43:23.526Z,84.10
2018-03-23T21:45:51.126Z,84.20
2018-03-23T21:48:18.587Z,84.20
2018-03-23T21:50:46.050Z,84.00
2018-03-23T21:53:13.534Z,84.10
2018-03-23T21:55:41.757Z,83.80
2018-03-23T21:58:09.221Z,83.80
2018-03-23T22:00:36.695Z,84.30
2018-03-23T22:03:04.523Z,84.90
2018-03-23T22:05:32.002Z,85.00
2018-03-23T22:07:59.467Z,85.00
2018-03-23T22:10:26.944Z,84.70
2018-03-23T22:12:54.624Z,85.10
2018-03-23T22:15:22.858Z,85.20
2018-03-23T22:17:50.323Z,85.20
2018-03-23T22:20:18.064Z,85.60
2018-03-23T22:22:45.532Z,85.50
2018-03-23T22:25:13.011Z,85.80
2018-03-23T22:27:40.471Z,85.90
2018-03-23T22:30:07.946Z,86.00
2018-03-23T22:32:36.178Z,86.40
2018-03-23T22:35:03.850Z,86.30
2018-03-23T22:37:31.326Z,86.30
2018-03-23T22:39:58.794Z,86.20
2018-03-23T22:42:27.039Z,86.30
2018-03-23T22:44:54.508Z,86.30
2018-03-23T22:47:21.983Z,86.20
2018-03-23T22:49:50.230Z,86.20
2018-03-23T22:52:17.915Z,86.40
2018-03-23T22:54:45.386Z,86.20
2018-03-23T22:57:13.606Z,86.40
2018-03-23T22:59:41.074Z,86.40
2018-03-23T23:02:08.532Z,86.30
2018-03-23T23:04:36.010Z,86.00
2018-03-23T23:07:03.766Z,86.30
2018-03-23T23:09:31.444Z,86.20
2018-03-23T23:11:58.917Z,86.40
2018-03-23T23:14:27.138Z,86.50
2018-03-23T23:16:54.608Z,86.50
2018-03-23T23:19:22.078Z,86.60
2018-03-23T23:21:49.805Z,86.30
2018-03-23T23:24:17.291Z,86.40
2018-03-23T23:26:44.762Z,86.00
2018-03-23T23:29:12.238Z,86.00
2018-03-23T23:31:40.486Z,85.20
2018-03-23T23:34:07.972Z,85.10
2018-03-23T23:36:36.227Z,85.70
2018-03-23T23:39:03.709Z,85.60
2018-03-23T23:41:31.968Z,85.90
2018-03-23T23:43:59.475Z,85.90
2018-03-23T23:46:26.965Z,85.70
2018-03-23T23:48:54.447Z,85.90
2018-03-23T23:51:21.928Z,85.70
2018-03-23T23:53:50.181Z,85.60
2018-03-23T23:56:18.446Z,85.50
2018-03-23T23:58:45.931Z,85.30
